createdAt,value
2018-03-22T00:00:42.140Z,21.45
2018-03-22T00:01:42.127Z,21.50
2018-03-22T00:02:42.121Z,21.47
2018-03-22T00:03:42.112Z,21.47
2018-03-22T00:04:42.102Z,21.53
2018-03-22T00:05:42.095Z,21.44
2018-03-22T00:06:42.086Z,21.50
2018-03-22T00:07:42.077Z,21.51
2018-03-22T00:08:42.072Z,21.48
2018-03-22T00:09:42.061Z,21.50
2018-03-22T00:10:42.054Z,21.50
2018-03-22T00:11:42.046Z,21.51
2018-03-22T00:12:42.043Z,21.51
2018-03-22T00:13:42.022Z,21.50
2018-03-22T00:14:42.019Z,21.47
2018-03-22T00:15:42.011Z,21.50
2018-03-22T00:16:42.007Z,21.48
2018-03-22T00:17:41.993Z,21.53
2018-03-22T00:18:41.988Z,21.50
2018-03-22T00:19:41.977Z,21.53
2018-03-22T00:20:41.970Z,21.58
2018-03-22T00:21:41.963Z,21.58
2018-03-22T00:22:41.958Z,21.53
2018-03-22T00:23:41.948Z,21.50
2018-03-22T00:24:41.943Z,21.48
2018-03-22T00:25:41.929Z,21.54
2018-03-22T00:26:41.919Z,21.51
2018-03-22T00:27:41.912Z,21.56
2018-03-22T00:28:41.907Z,21.56
2018-03-22T00:29:41.895Z,21.51
2018-03-22T00:30:41.887Z,21.51
2018-03-22T00:31:41.876Z,21.51
2018-03-22T00:32:41.871Z,21.59
2018-03-22T00:33:41.863Z,21.51
2018-03-22T00:34:41.861Z,21.53
2018-03-22T00:35:41.851Z,21.51
2018-03-22T00:36:41.837Z,21.47
2018-03-22T00:37:41.826Z,21.59
2018-03-22T00:38:41.832Z,21.58
2018-03-22T00:39:41.813Z,21.53
2018-03-22T00:40:41.802Z,21.56
2018-03-22T00:41:41.788Z,21.54
2018-03-22T00:42:41.780Z,21.51
2018-03-22T00:43:41.774Z,21.51
2018-03-22T00:44:41.774Z,21.59
2018-03-22T00:45:41.764Z,21.51
2018-03-22T00:46:41.752Z,21.59
2018-03-22T00:47:41.744Z,21.62
2018-03-22T00:48:41.738Z,21.51
2018-03-22T00:49:41.726Z,21.48
2018-03-22T00:50:41.718Z,21.51
2018-03-22T00:51:41.712Z,21.54
2018-03-22T00:52:41.705Z,21.51
2018-03-22T00:53:41.697Z,21.45
2018-03-22T00:54:41.680Z,21.50
2018-03-22T00:55:41.675Z,21.50
2018-03-22T00:56:41.668Z,21.50
2018-03-22T00:57:41.692Z,21.58
2018-03-22T00:58:41.653Z,21.58
2018-03-22T00:59:41.644Z,21.53
2018-03-22T01:00:41.635Z,21.50
2018-03-22T01:01:41.632Z,21.51
2018-03-22T01:02:41.617Z,21.45
2018-03-22T01:03:41.612Z,21.54
2018-03-22T01:04:41.605Z,21.56
2018-03-22T01:05:41.595Z,21.63
2018-03-22T01:06:41.582Z,21.50
2018-03-22T01:07:41.582Z,21.50
2018-03-22T01:08:41.572Z,21.56
2018-03-22T01:09:41.560Z,21.54
2018-03-22T01:10:41.600Z,21.53
2018-03-22T01:11:41.543Z,21.51
2018-03-22T01:12:41.536Z,21.50
2018-03-22T01:13:41.527Z,21.54
2018-03-22T01:14:41.521Z,21.48
2018-03-22T01:15:41.511Z,21.58
2018-03-22T01:16:41.503Z,21.53
2018-03-22T01:17:41.494Z,21.50
2018-03-22T01:18:41.483Z,21.53
2018-03-22T01:19:41.477Z,21.47
2018-03-22T01:20:41.474Z,21.51
2018-03-22T01:21:41.460Z,21.53
2018-03-22T01:22:41.452Z,21.53
2018-03-22T01:23:41.443Z,21.54
2018-03-22T01:24:41.436Z,21.54
2018-03-22T01:25:41.425Z,21.51
2018-03-22T01:26:41.423Z,21.58
2018-03-22T01:27:41.414Z,21.53
2018-03-22T01:28:41.404Z,21.63
2018-03-22T01:29:41.392Z,21.65
2018-03-22T01:30:41.382Z,21.62
2018-03-22T01:31:41.379Z,21.65
2018-03-22T01:32:41.385Z,21.54
2018-03-22T01:33:41.360Z,21.53
2018-03-22T01:34:41.351Z,21.51
2018-03-22T01:35:41.354Z,21.58
2018-03-22T01:36:41.337Z,21.51
2018-03-22T01:37:41.328Z,21.58
2018-03-22T01:38:41.320Z,21.63
2018-03-22T01:39:41.311Z,21.54
2018-03-22T01:40:41.303Z,21.51
2018-03-22T01:41:41.295Z,21.53
2018-03-22T01:42:41.287Z,21.56
2018-03-22T01:43:41.276Z,21.50
2018-03-22T01:44:41.268Z,21.51
2018-03-22T01:45:41.274Z,21.51
2018-03-22T01:46:41.253Z,21.51
2018-03-22T01:47:41.248Z,21.58
2018-03-22T01:48:41.236Z,21.51
2018-03-22T01:49:41.231Z,21.51
2018-03-22T01:50:41.223Z,21.50
2018-03-22T01:51:41.211Z,21.59
2018-03-22T01:52:41.207Z,21.62
2018-03-22T01:53:41.194Z,21.53
2018-03-22T01:54:41.182Z,21.53
2018-03-22T01:55:41.179Z,21.51
2018-03-22T01:56:41.171Z,21.60
2018-03-22T01:57:41.161Z,21.54
2018-03-22T01:58:41.153Z,21.58
2018-03-22T01:59:41.146Z,21.53
2018-03-22T02:00:41.136Z,21.53
2018-03-22T02:01:41.126Z,21.59
2018-03-22T02:02:41.129Z,21.59
2018-03-22T02:03:41.114Z,21.48
2018-03-22T02:04:41.106Z,21.51
2018-03-22T02:05:41.092Z,21.50
2018-03-22T02:06:41.085Z,21.51
2018-03-22T02:07:41.078Z,21.58
2018-03-22T02:08:41.073Z,21.54
2018-03-22T02:09:41.060Z,21.53
2018-03-22T02:10:41.056Z,21.59
2018-03-22T02:11:41.045Z,21.47
2018-03-22T02:12:41.037Z,21.54
2018-03-22T02:13:41.029Z,21.50
2018-03-22T02:14:41.026Z,21.48
2018-03-22T02:15:41.015Z,21.56
2018-03-22T02:16:41.006Z,21.51
2018-03-22T02:17:40.995Z,21.40
2018-03-22T02:18:40.985Z,21.38
2018-03-22T02:19:40.988Z,21.43
2018-03-22T02:20:40.976Z,21.41
2018-03-22T02:21:40.960Z,21.43
2018-03-22T02:22:40.953Z,21.48
2018-03-22T02:23:40.943Z,21.41
2018-03-22T02:24:40.937Z,21.38
2018-03-22T02:25:40.927Z,21.45
2018-03-22T02:26:40.921Z,21.48
2018-03-22T02:27:40.922Z,21.38
2018-03-22T02:28:40.906Z,21.37
2018-03-22T02:29:40.892Z,21.35
2018-03-22T02:30:40.890Z,21.44
2018-03-22T02:31:40.911Z,21.38
2018-03-22T02:32:40.870Z,21.41
2018-03-22T02:33:40.862Z,21.44
2018-03-22T02:34:40.856Z,21.37
2018-03-22T02:35:40.850Z,21.47
2018-03-22T02:36:40.838Z,21.37
2018-03-22T02:37:40.833Z,21.45
2018-03-22T02:38:40.822Z,21.38
2018-03-22T02:39:40.811Z,21.44
2018-03-22T02:40:40.798Z,21.43
2018-03-22T02:41:40.794Z,21.37
2018-03-22T02:42:40.787Z,21.35
2018-03-22T02:43:40.791Z,21.41
2018-03-22T02:44:40.771Z,21.37
2018-03-22T02:45:40.763Z,21.38
2018-03-22T02:46:40.754Z,21.38
2018-03-22T02:47:40.744Z,21.45
2018-03-22T02:48:40.737Z,21.37
2018-03-22T02:49:40.730Z,21.45
2018-03-22T02:50:40.721Z,21.40
2018-03-22T02:51:40.712Z,21.28
2018-03-22T02:52:40.707Z,21.35
2018-03-22T02:53:40.696Z,21.38
2018-03-22T02:54:40.687Z,21.29
2018-03-22T02:55:40.691Z,21.28
2018-03-22T02:56:40.690Z,21.26
2018-03-22T02:57:40.661Z,21.37
2018-03-22T02:58:40.652Z,21.32
2018-03-22T02:59:40.645Z,21.30
2018-03-22T03:00:40.636Z,21.33
2018-03-22T03:01:40.632Z,21.28
2018-03-22T03:02:40.625Z,21.29
2018-03-22T03:03:40.611Z,21.33
2018-03-22T03:04:40.605Z,21.23
2018-03-22T03:05:40.594Z,21.33
2018-03-22T03:06:40.588Z,21.23
2018-03-22T03:07:40.586Z,21.22
2018-03-22T03:08:40.569Z,21.30
2018-03-22T03:09:40.560Z,21.32
2018-03-22T03:10:40.552Z,21.29
2018-03-22T03:11:40.545Z,21.35
2018-03-22T03:12:40.536Z,21.33
2018-03-22T03:13:40.528Z,21.28
2018-03-22T03:14:40.518Z,21.32
2018-03-22T03:15:40.516Z,21.28
2018-03-22T03:16:40.501Z,21.33
2018-03-22T03:17:40.492Z,21.29
2018-03-22T03:18:40.485Z,21.29
2018-03-22T03:19:40.477Z,21.28
2018-03-22T03:20:40.470Z,21.41
2018-03-22T03:21:40.464Z,21.35
2018-03-22T03:22:40.459Z,21.28
2018-03-22T03:23:40.444Z,21.22
2018-03-22T03:24:40.436Z,21.28
2018-03-22T03:25:40.427Z,21.32
2018-03-22T03:26:40.419Z,21.33
2018-03-22T03:27:40.410Z,21.32
2018-03-22T03:28:40.403Z,21.43
2018-03-22T03:29:40.394Z,21.48
2018-03-22T03:30:40.391Z,21.37
2018-03-22T03:31:40.377Z,21.43
2018-03-22T03:32:40.368Z,21.40
2018-03-22T03:33:40.358Z,21.40
2018-03-22T03:34:40.352Z,21.47
2018-03-22T03:35:40.344Z,21.43
2018-03-22T03:36:40.341Z,21.41
2018-03-22T03:37:40.329Z,21.51
2018-03-22T03:38:40.319Z,21.38
2018-03-22T03:39:40.308Z,21.50
2018-03-22T03:40:40.301Z,21.40
2018-03-22T03:41:40.292Z,21.45
2018-03-22T03:42:40.287Z,21.50
2018-03-22T03:43:40.275Z,21.45
2018-03-22T03:44:40.275Z,21.50
2018-03-22T03:45:40.260Z,21.35
2018-03-22T03:46:40.250Z,21.40
2018-03-22T03:47:40.242Z,21.40
2018-03-22T03:48:40.244Z,21.43
2018-03-22T03:49:40.230Z,21.35
2018-03-22T03:50:40.217Z,21.40
2018-03-22T03:51:40.207Z,21.45
2018-03-22T03:52:40.205Z,21.45
2018-03-22T03:53:40.191Z,21.41
2018-03-22T03:54:40.196Z,21.43
2018-03-22T03:55:40.180Z,21.40
2018-03-22T03:56:40.168Z,21.35
2018-03-22T03:57:40.158Z,21.51
2018-03-22T03:58:40.148Z,21.47
2018-03-22T03:59:40.139Z,21.38
2018-03-22T04:00:40.138Z,21.51
2018-03-22T04:01:40.124Z,21.43
2018-03-22T04:02:40.130Z,21.56
2018-03-22T04:03:40.108Z,21.63
2018-03-22T04:04:40.100Z,21.56
2018-03-22T04:05:40.091Z,21.58
2018-03-22T04:06:40.089Z,21.62
2018-03-22T04:07:40.075Z,21.69
2018-03-22T04:08:40.067Z,21.70
2018-03-22T04:09:40.064Z,21.63
2018-03-22T04:10:40.049Z,21.69
2018-03-22T04:11:40.046Z,21.69
2018-03-22T04:12:40.033Z,21.77
2018-03-22T04:13:40.025Z,21.75
2018-03-22T04:14:40.018Z,21.78
2018-03-22T04:15:40.011Z,21.77
2018-03-22T04:16:40.000Z,21.80
2018-03-22T04:17:39.991Z,21.77
2018-03-22T04:18:39.983Z,21.72
2018-03-22T04:19:39.975Z,21.80
2018-03-22T04:20:39.970Z,21.83
2018-03-22T04:21:39.956Z,21.81
2018-03-22T04:22:39.951Z,21.83
2018-03-22T04:23:39.954Z,21.85
2018-03-22T04:24:39.935Z,21.88
2018-03-22T04:25:39.925Z,21.85
2018-03-22T04:26:39.918Z,21.83
2018-03-22T04:27:39.910Z,21.88
2018-03-22T04:28:39.899Z,21.91
2018-03-22T04:29:39.898Z,21.88
2018-03-22T04:30:39.885Z,21.92
2018-03-22T04:31:39.877Z,21.91
2018-03-22T04:32:39.869Z,21.97
2018-03-22T04:33:39.857Z,21.96
2018-03-22T04:34:39.859Z,22.00
2018-03-22T04:35:39.846Z,21.96
2018-03-22T04:36:39.837Z,21.92
2018-03-22T04:37:39.827Z,21.94
2018-03-22T04:38:39.819Z,21.99
2018-03-22T04:39:39.812Z,21.94
2018-03-22T04:40:39.804Z,22.03
2018-03-22T04:41:39.795Z,21.99
2018-03-22T04:42:39.789Z,22.00
2018-03-22T04:43:39.780Z,21.91
2018-03-22T04:44:39.778Z,22.00
2018-03-22T04:45:39.767Z,22.01
2018-03-22T04:46:39.757Z,22.08
2018-03-22T04:47:39.749Z,22.03
2018-03-22T04:48:39.738Z,22.04
2018-03-22T04:49:39.729Z,22.12
2018-03-22T04:50:39.723Z,22.03
2018-03-22T04:51:39.721Z,22.10
2018-03-22T04:52:39.699Z,22.00
2018-03-22T04:53:39.702Z,21.85
2018-03-22T04:54:39.690Z,21.80
2018-03-22T04:55:39.688Z,21.74
2018-03-22T04:56:39.680Z,21.62
2018-03-22T04:57:39.666Z,21.51
2018-03-22T04:58:39.658Z,21.62
2018-03-22T04:59:39.651Z,21.58
2018-03-22T05:00:39.642Z,21.53
2018-03-22T05:01:39.645Z,21.47
2018-03-22T05:02:39.624Z,21.50
2018-03-22T05:03:39.622Z,21.43
2018-03-22T05:04:39.608Z,21.43
2018-03-22T05:05:39.599Z,21.50
2018-03-22T05:06:39.590Z,21.44
2018-03-22T05:07:39.587Z,21.41
2018-03-22T05:08:39.575Z,21.48
2018-03-22T05:09:39.569Z,21.48
2018-03-22T05:10:39.561Z,21.50
2018-03-22T05:11:39.551Z,21.47
2018-03-22T05:12:39.543Z,21.47
2018-03-22T05:13:39.534Z,21.54
2018-03-22T05:14:39.524Z,21.58
2018-03-22T05:15:39.515Z,21.50
2018-03-22T05:16:39.509Z,21.53
2018-03-22T05:17:39.497Z,21.53
2018-03-22T05:18:39.496Z,21.53
2018-03-22T05:19:39.484Z,21.54
2018-03-22T05:20:39.473Z,21.53
2018-03-22T05:21:39.465Z,21.62
2018-03-22T05:22:39.458Z,21.68
2018-03-22T05:23:39.449Z,21.59
2018-03-22T05:24:39.441Z,21.65
2018-03-22T05:25:39.432Z,21.68
2018-03-22T05:26:39.423Z,21.65
2018-03-22T05:27:39.415Z,21.63
2018-03-22T05:28:39.408Z,21.68
2018-03-22T05:29:39.397Z,21.68
2018-03-22T05:30:39.390Z,21.70
2018-03-22T05:31:39.392Z,21.75
2018-03-22T05:32:39.373Z,21.81
2018-03-22T05:33:39.367Z,21.72
2018-03-22T05:34:39.357Z,21.75
2018-03-22T05:35:39.350Z,21.81
2018-03-22T05:36:39.341Z,21.75
2018-03-22T05:37:39.333Z,21.80
2018-03-22T05:38:39.327Z,21.78
2018-03-22T05:39:39.316Z,21.72
2018-03-22T05:40:39.314Z,21.81
2018-03-22T05:41:39.297Z,21.78
2018-03-22T05:42:39.292Z,21.78
2018-03-22T05:43:39.285Z,21.78
2018-03-22T05:44:39.278Z,21.83
2018-03-22T05:45:39.267Z,21.81
2018-03-22T05:46:39.260Z,21.78
2018-03-22T05:47:39.252Z,21.88
2018-03-22T05:48:39.244Z,21.81
2018-03-22T05:49:39.237Z,21.78
2018-03-22T05:50:39.226Z,21.80
2018-03-22T05:51:39.218Z,21.81
2018-03-22T05:52:39.211Z,21.89
2018-03-22T05:53:39.202Z,21.89
2018-03-22T05:54:39.194Z,21.78
2018-03-22T05:55:39.191Z,21.89
2018-03-22T05:56:39.178Z,21.77
2018-03-22T05:57:39.170Z,21.85
2018-03-22T05:58:39.160Z,21.78
2018-03-22T05:59:39.153Z,21.85
2018-03-22T06:00:39.147Z,21.78
2018-03-22T06:01:39.137Z,21.83
2018-03-22T06:02:39.130Z,21.80
2018-03-22T06:03:39.120Z,21.78
2018-03-22T06:04:39.107Z,21.83
2018-03-22T06:05:39.102Z,21.78
2018-03-22T06:06:39.097Z,21.75
2018-03-22T06:07:39.094Z,21.78
2018-03-22T06:08:39.080Z,21.77
2018-03-22T06:09:39.075Z,21.74
2018-03-22T06:10:39.063Z,21.77
2018-03-22T06:11:39.054Z,21.77
2018-03-22T06:12:39.045Z,21.77
2018-03-22T06:13:39.043Z,21.74
2018-03-22T06:14:39.030Z,21.77
2018-03-22T06:15:39.023Z,21.78
2018-03-22T06:16:39.016Z,21.77
2018-03-22T06:17:39.005Z,21.70
2018-03-22T06:18:39.000Z,21.78
2018-03-22T06:19:38.997Z,21.78
2018-03-22T06:20:38.983Z,21.77
2018-03-22T06:21:38.974Z,21.80
2018-03-22T06:22:38.965Z,21.70
2018-03-22T06:23:38.996Z,21.72
2018-03-22T06:24:38.977Z,21.68
2018-03-22T06:25:38.971Z,21.63
2018-03-22T06:26:38.955Z,21.74
2018-03-22T06:27:38.924Z,21.75
2018-03-22T06:28:38.909Z,21.69
2018-03-22T06:29:38.906Z,21.66
2018-03-22T06:30:38.900Z,21.72
2018-03-22T06:31:38.894Z,21.74
2018-03-22T06:32:38.884Z,21.66
2018-03-22T06:33:38.878Z,21.66
2018-03-22T06:34:38.865Z,21.74
2018-03-22T06:35:38.859Z,21.70
2018-03-22T06:36:38.850Z,21.70
2018-03-22T06:37:38.845Z,21.70
2018-03-22T06:38:38.837Z,21.77
2018-03-22T06:39:38.825Z,21.74
2018-03-22T06:40:38.812Z,21.74
2018-03-22T06:41:38.807Z,21.78
2018-03-22T06:42:38.802Z,21.72
2018-03-22T06:43:38.803Z,21.72
2018-03-22T06:44:38.787Z,21.72
2018-03-22T06:45:38.775Z,21.75
2018-03-22T06:46:38.768Z,21.75
2018-03-22T06:47:38.762Z,21.74
2018-03-22T06:48:38.752Z,21.74
2018-03-22T06:49:38.750Z,21.70
2018-03-22T06:50:38.736Z,21.77
2018-03-22T06:51:38.728Z,21.74
2018-03-22T06:52:38.721Z,21.68
2018-03-22T06:53:38.707Z,21.74
2018-03-22T06:54:38.707Z,21.74
2018-03-22T06:55:38.698Z,21.74
2018-03-22T06:56:38.686Z,21.68
2018-03-22T06:57:38.679Z,21.80
2018-03-22T06:58:38.667Z,21.77
2018-03-22T06:59:38.660Z,21.74
2018-03-22T07:00:38.653Z,21.77
2018-03-22T07:01:38.646Z,21.74
2018-03-22T07:02:38.635Z,21.74
2018-03-22T07:03:38.629Z,21.75
2018-03-22T07:04:38.620Z,21.78
2018-03-22T07:05:38.610Z,21.74
2018-03-22T07:06:38.741Z,21.74
2018-03-22T07:07:38.600Z,21.77
2018-03-22T07:08:38.752Z,21.77
2018-03-22T07:09:38.579Z,21.72
2018-03-22T07:10:38.570Z,21.78
2018-03-22T07:11:38.564Z,21.75
2018-03-22T07:12:38.555Z,21.78
2018-03-22T07:13:38.545Z,21.77
2018-03-22T07:14:38.568Z,21.77
2018-03-22T07:15:38.530Z,21.78
2018-03-22T07:16:38.533Z,21.77
2018-03-22T07:17:38.523Z,21.83
2018-03-22T07:18:38.505Z,21.75
2018-03-22T07:19:38.502Z,21.69
2018-03-22T07:20:38.489Z,21.80
2018-03-22T07:21:38.481Z,21.74
2018-03-22T07:22:38.474Z,21.74
2018-03-22T07:23:38.465Z,21.77
2018-03-22T07:24:38.456Z,21.81
2018-03-22T07:25:38.448Z,21.75
2018-03-22T07:26:38.444Z,21.77
2018-03-22T07:27:38.432Z,21.80
2018-03-22T07:28:38.424Z,21.80
2018-03-22T07:29:38.413Z,21.77
2018-03-22T07:30:38.408Z,21.80
2018-03-22T07:31:38.398Z,21.75
2018-03-22T07:32:38.390Z,21.78
2018-03-22T07:33:38.383Z,21.78
2018-03-22T07:34:38.376Z,21.75
2018-03-22T07:35:38.366Z,21.78
2018-03-22T07:36:38.354Z,21.75
2018-03-22T07:37:38.354Z,21.83
2018-03-22T07:38:38.348Z,21.83
2018-03-22T07:39:38.333Z,21.78
2018-03-22T07:40:38.327Z,21.81
2018-03-22T07:41:38.319Z,21.83
2018-03-22T07:42:38.310Z,21.80
2018-03-22T07:43:38.308Z,21.81
2018-03-22T07:44:38.291Z,21.81
2018-03-22T07:45:38.282Z,21.84
2018-03-22T07:46:38.275Z,21.81
2018-03-22T07:47:38.269Z,21.84
2018-03-22T07:48:38.263Z,21.85
2018-03-22T07:49:38.254Z,21.83
2018-03-22T07:50:38.242Z,21.89
2018-03-22T07:51:38.234Z,21.83
2018-03-22T07:52:38.247Z,21.84
2018-03-22T07:53:38.217Z,21.85
2018-03-22T07:54:38.212Z,21.81
2018-03-22T07:55:38.203Z,21.88
2018-03-22T07:56:38.196Z,21.88
2018-03-22T07:57:38.191Z,21.85
2018-03-22T07:58:38.178Z,21.88
2018-03-22T07:59:38.171Z,21.92
2018-03-22T08:00:38.162Z,21.88
2018-03-22T08:01:38.158Z,21.92
2018-03-22T08:02:38.151Z,21.89
2018-03-22T08:03:38.135Z,21.88
2018-03-22T08:04:38.131Z,21.85
2018-03-22T08:05:38.118Z,21.85
2018-03-22T08:06:38.115Z,21.91
2018-03-22T08:07:38.103Z,21.91
2018-03-22T08:08:38.103Z,21.83
2018-03-22T08:09:38.090Z,21.83
2018-03-22T08:10:38.091Z,21.92
2018-03-22T08:11:38.072Z,21.85
2018-03-22T08:12:38.066Z,21.94
2018-03-22T08:13:38.056Z,21.99
2018-03-22T08:14:38.048Z,21.92
2018-03-22T08:15:38.032Z,21.94
2018-03-22T08:16:38.029Z,21.96
2018-03-22T08:17:38.021Z,21.96
2018-03-22T08:18:38.015Z,21.99
2018-03-22T08:19:38.004Z,21.97
2018-03-22T08:20:38.007Z,22.00
2018-03-22T08:21:37.990Z,22.00
2018-03-22T08:22:37.982Z,22.00
2018-03-22T08:23:37.974Z,22.01
2018-03-22T08:24:37.972Z,22.01
2018-03-22T08:25:37.956Z,22.07
2018-03-22T08:26:37.955Z,21.99
2018-03-22T08:27:37.938Z,21.99
2018-03-22T08:28:37.941Z,22.03
2018-03-22T08:29:37.925Z,21.96
2018-03-22T08:30:37.933Z,21.94
2018-03-22T08:31:37.964Z,22.03
2018-03-22T08:32:37.929Z,21.91
2018-03-22T08:33:37.894Z,22.00
2018-03-22T08:34:37.886Z,21.99
2018-03-22T08:35:37.879Z,21.96
2018-03-22T08:36:37.871Z,21.92
2018-03-22T08:37:37.869Z,21.96
2018-03-22T08:38:37.860Z,21.92
2018-03-22T08:39:37.846Z,21.92
2018-03-22T08:40:37.839Z,21.89
2018-03-22T08:41:37.829Z,21.88
2018-03-22T08:42:37.823Z,21.89
2018-03-22T08:43:37.819Z,21.92
2018-03-22T08:44:37.805Z,21.89
2018-03-22T08:45:37.804Z,21.88
2018-03-22T08:46:37.786Z,21.89
2018-03-22T08:47:37.781Z,21.89
2018-03-22T08:48:37.778Z,21.83
2018-03-22T08:49:37.780Z,21.84
2018-03-22T08:50:37.761Z,21.83
2018-03-22T08:51:37.756Z,21.84
2018-03-22T08:52:37.743Z,21.78
2018-03-22T08:53:37.732Z,21.85
2018-03-22T08:54:37.726Z,21.83
2018-03-22T08:55:37.722Z,21.81
2018-03-22T08:56:37.710Z,21.83
2018-03-22T08:57:37.701Z,21.78
2018-03-22T08:58:37.699Z,21.81
2018-03-22T08:59:37.709Z,21.80
2018-03-22T09:00:37.682Z,21.84
2018-03-22T09:01:37.677Z,21.77
2018-03-22T09:02:37.665Z,21.83
2018-03-22T09:03:37.657Z,21.80
2018-03-22T09:04:37.643Z,21.81
2018-03-22T09:05:37.640Z,21.89
2018-03-22T09:06:37.630Z,21.83
2018-03-22T09:07:37.626Z,21.81
2018-03-22T09:08:37.613Z,21.84
2018-03-22T09:09:37.605Z,21.80
2018-03-22T09:10:37.599Z,21.83
2018-03-22T09:11:37.588Z,21.80
2018-03-22T09:12:37.584Z,21.78
2018-03-22T09:13:37.581Z,21.75
2018-03-22T09:14:37.565Z,21.85
2018-03-22T09:15:37.559Z,21.84
2018-03-22T09:16:37.552Z,21.88
2018-03-22T09:17:37.540Z,21.85
2018-03-22T09:18:37.536Z,21.84
2018-03-22T09:19:37.533Z,21.83
2018-03-22T09:20:37.516Z,21.78
2018-03-22T09:21:37.506Z,21.80
2018-03-22T09:22:37.505Z,21.80
2018-03-22T09:23:37.491Z,21.78
2018-03-22T09:24:37.485Z,21.81
2018-03-22T09:25:37.480Z,21.78
2018-03-22T09:26:37.468Z,21.85
2018-03-22T09:27:37.462Z,21.78
2018-03-22T09:28:37.451Z,21.77
2018-03-22T09:29:37.440Z,21.83
2018-03-22T09:30:37.433Z,21.80
2018-03-22T09:31:37.428Z,21.80
2018-03-22T09:32:37.417Z,21.80
2018-03-22T09:33:37.408Z,21.75
2018-03-22T09:34:37.403Z,21.77
2018-03-22T09:35:37.393Z,21.80
2018-03-22T09:36:37.386Z,21.74
2018-03-22T09:37:37.379Z,21.77
2018-03-22T09:38:37.389Z,21.78
2018-03-22T09:39:37.364Z,21.72
2018-03-22T09:40:37.353Z,21.74
2018-03-22T09:41:37.344Z,21.74
2018-03-22T09:42:37.337Z,21.80
2018-03-22T09:43:37.332Z,21.75
2018-03-22T09:44:37.321Z,21.75
2018-03-22T09:45:37.312Z,21.81
2018-03-22T09:46:37.308Z,21.84
2018-03-22T09:47:37.297Z,21.78
2018-03-22T09:48:37.287Z,21.80
2018-03-22T09:49:37.287Z,21.74
2018-03-22T09:50:37.276Z,21.83
2018-03-22T09:51:37.264Z,21.80
2018-03-22T09:52:37.263Z,21.80
2018-03-22T09:53:37.248Z,21.84
2018-03-22T09:54:37.247Z,21.80
2018-03-22T09:55:37.235Z,21.81
2018-03-22T09:56:37.224Z,21.83
2018-03-22T09:57:37.219Z,21.84
2018-03-22T09:58:37.207Z,21.83
2018-03-22T09:59:37.199Z,21.89
2018-03-22T10:00:37.192Z,21.92
2018-03-22T10:01:37.185Z,21.85
2018-03-22T10:02:37.174Z,21.96
2018-03-22T10:03:37.175Z,21.94
2018-03-22T10:04:37.188Z,21.88
2018-03-22T10:05:37.177Z,21.83
2018-03-22T10:06:37.142Z,21.85
2018-03-22T10:07:37.149Z,21.91
2018-03-22T10:08:37.146Z,21.88
2018-03-22T10:09:37.119Z,21.88
2018-03-22T10:10:37.110Z,21.85
2018-03-22T10:11:37.103Z,21.89
2018-03-22T10:12:37.097Z,21.85
2018-03-22T10:13:37.086Z,21.89
2018-03-22T10:14:37.078Z,21.88
2018-03-22T10:15:37.072Z,21.81
2018-03-22T10:16:37.065Z,21.83
2018-03-22T10:17:37.054Z,21.91
2018-03-22T10:18:37.045Z,21.89
2018-03-22T10:19:37.053Z,21.88
2018-03-22T10:20:37.043Z,21.89
2018-03-22T10:21:37.020Z,21.89
2018-03-22T10:22:37.013Z,21.88
2018-03-22T10:23:37.008Z,21.94
2018-03-22T10:24:36.998Z,21.89
2018-03-22T10:25:36.990Z,21.88
2018-03-22T10:26:36.979Z,21.85
2018-03-22T10:27:36.974Z,21.81
2018-03-22T10:28:36.964Z,21.84
2018-03-22T10:29:36.957Z,21.83
2018-03-22T10:30:36.953Z,21.83
2018-03-22T10:31:36.940Z,21.88
2018-03-22T10:32:36.933Z,21.80
2018-03-22T10:33:36.930Z,21.81
2018-03-22T10:34:36.918Z,21.85
2018-03-22T10:35:36.909Z,21.84
2018-03-22T10:36:36.900Z,21.75
2018-03-22T10:37:36.891Z,21.81
2018-03-22T10:38:36.886Z,21.83
2018-03-22T10:39:36.874Z,21.81
2018-03-22T10:40:36.872Z,21.81
2018-03-22T10:41:36.864Z,21.80
2018-03-22T10:42:36.848Z,21.88
2018-03-22T10:43:36.841Z,21.80
2018-03-22T10:44:36.835Z,21.81
2018-03-22T10:45:36.826Z,21.89
2018-03-22T10:46:36.816Z,21.89
2018-03-22T10:47:36.813Z,21.89
2018-03-22T10:48:36.804Z,21.88
2018-03-22T10:49:36.812Z,21.96
2018-03-22T10:50:36.786Z,21.91
2018-03-22T10:51:36.785Z,21.85
2018-03-22T10:52:36.770Z,21.91
2018-03-22T10:53:36.762Z,21.96
2018-03-22T10:54:36.752Z,21.92
2018-03-22T10:55:36.746Z,21.89
2018-03-22T10:56:36.754Z,21.92
2018-03-22T10:57:36.730Z,21.85
2018-03-22T10:58:36.721Z,21.91
2018-03-22T10:59:36.713Z,21.99
2018-03-22T11:00:36.711Z,21.88
2018-03-22T11:01:36.698Z,21.89
2018-03-22T11:02:36.690Z,21.92
2018-03-22T11:03:36.685Z,21.91
2018-03-22T11:04:36.677Z,21.88
2018-03-22T11:05:36.666Z,21.88
2018-03-22T11:06:36.654Z,21.88
2018-03-22T11:07:36.650Z,21.83
2018-03-22T11:08:36.640Z,21.80
2018-03-22T11:09:36.632Z,21.84
2018-03-22T11:10:36.624Z,21.84
2018-03-22T11:11:36.637Z,21.81
2018-03-22T11:12:36.608Z,21.91
2018-03-22T11:13:36.600Z,21.80
2018-03-22T11:14:36.602Z,21.80
2018-03-22T11:15:36.588Z,21.81
2018-03-22T11:16:36.577Z,21.84
2018-03-22T11:17:36.567Z,21.83
2018-03-22T11:18:36.558Z,21.83
2018-03-22T11:19:36.553Z,21.81
2018-03-22T11:20:36.555Z,21.80
2018-03-22T11:21:36.536Z,21.83
2018-03-22T11:22:36.528Z,21.83
2018-03-22T11:23:36.519Z,21.80
2018-03-22T11:24:36.520Z,21.81
2018-03-22T11:25:36.504Z,21.88
2018-03-22T11:26:36.496Z,21.81
2018-03-22T11:27:36.489Z,21.77
2018-03-22T11:28:36.479Z,21.80
2018-03-22T11:29:36.473Z,21.81
2018-03-22T11:30:36.462Z,21.80
2018-03-22T11:31:36.457Z,21.78
2018-03-22T11:32:36.455Z,21.75
2018-03-22T11:33:36.438Z,21.85
2018-03-22T11:34:36.428Z,21.75
2018-03-22T11:35:36.423Z,21.85
2018-03-22T11:36:36.415Z,21.83
2018-03-22T11:37:36.406Z,21.81
2018-03-22T11:38:36.405Z,21.83
2018-03-22T11:39:36.395Z,21.88
2018-03-22T11:40:36.383Z,21.84
2018-03-22T11:41:36.374Z,21.88
2018-03-22T11:42:36.363Z,21.75
2018-03-22T11:43:36.357Z,21.80
2018-03-22T11:44:36.355Z,21.84
2018-03-22T11:45:36.341Z,21.80
2018-03-22T11:46:36.332Z,21.83
2018-03-22T11:47:36.325Z,21.83
2018-03-22T11:48:36.318Z,21.81
2018-03-22T11:49:36.314Z,21.80
2018-03-22T11:50:36.306Z,21.80
2018-03-22T11:51:36.295Z,21.88
2018-03-22T11:52:36.283Z,21.83
2018-03-22T11:53:36.277Z,21.85
2018-03-22T11:54:36.266Z,21.94
2018-03-22T11:55:36.265Z,21.78
2018-03-22T11:56:36.257Z,21.80
2018-03-22T11:57:36.243Z,21.89
2018-03-22T11:58:36.236Z,21.85
2018-03-22T11:59:36.234Z,21.83
2018-03-22T12:00:36.224Z,21.88
2018-03-22T12:01:36.212Z,21.85
2018-03-22T12:02:36.209Z,21.81
2018-03-22T12:03:36.198Z,21.80
2018-03-22T12:04:36.189Z,21.83
2018-03-22T12:05:36.181Z,21.77
2018-03-22T12:06:36.171Z,21.85
2018-03-22T12:07:36.175Z,21.78
2018-03-22T12:08:36.157Z,21.80
2018-03-22T12:09:36.147Z,21.78
2018-03-22T12:10:36.138Z,21.83
2018-03-22T12:11:36.133Z,21.83
2018-03-22T12:12:36.131Z,21.78
2018-03-22T12:13:36.119Z,21.80
2018-03-22T12:14:36.111Z,21.74
2018-03-22T12:15:36.100Z,21.74
2018-03-22T12:16:36.091Z,21.77
2018-03-22T12:17:36.084Z,21.80
2018-03-22T12:18:36.069Z,21.77
2018-03-22T12:19:36.070Z,21.74
2018-03-22T12:20:36.065Z,21.74
2018-03-22T12:21:36.081Z,21.75
2018-03-22T12:22:36.041Z,21.80
2018-03-22T12:23:36.034Z,21.83
2018-03-22T12:24:36.026Z,21.74
2018-03-22T12:25:36.018Z,21.78
2018-03-22T12:26:36.011Z,21.78
2018-03-22T12:27:36.004Z,21.83
2018-03-22T12:28:35.994Z,21.77
2018-03-22T12:29:35.985Z,21.72
2018-03-22T12:30:35.977Z,21.75
2018-03-22T12:31:35.972Z,21.75
2018-03-22T12:32:35.963Z,21.80
2018-03-22T12:33:35.951Z,21.77
2018-03-22T12:34:35.942Z,21.78
2018-03-22T12:35:35.936Z,21.66
2018-03-22T12:36:35.928Z,21.74
2018-03-22T12:37:35.919Z,21.72
2018-03-22T12:38:35.919Z,21.69
2018-03-22T12:39:35.906Z,21.69
2018-03-22T12:40:35.897Z,21.65
2018-03-22T12:41:35.887Z,21.69
2018-03-22T12:42:35.878Z,21.81
2018-03-22T12:43:35.936Z,21.72
2018-03-22T12:44:35.896Z,21.75
2018-03-22T12:45:35.854Z,21.77
2018-03-22T12:46:36.085Z,21.70
2018-03-22T12:47:35.839Z,21.80
2018-03-22T12:48:35.829Z,21.75
2018-03-22T12:49:35.825Z,21.70
2018-03-22T12:50:35.821Z,21.74
2018-03-22T12:51:35.807Z,21.69
2018-03-22T12:52:35.797Z,21.72